YXS weather

Prince George Airport
Prince George, British Columbia, Canada

Public forecast

Using degrees Celsius for public forecast. Weather courtesy of forecast.io.

METAR (pilot weather report)

Retrieved 2019/06/25 16:00 UTC (56 minutes ago):

CYXS 251600Z AUTO 00000KT 9SM CLR 12/08 A2994 RMK SLP150 DENSITY ALT 2400FT

TAF (pilot weather forecast)

Retrieved 2019/06/25 13:39 UTC (3 hours ago):

TAF CYXS 251238Z 2513/2601 VRB03KT P6SM FEW020 SCT050 BKN120 TEMPO 2513/2515 SCT005 BKN020 FM251500 VRB03KT P6SM SCT015 BKN100 TEMPO 2515/2519 P6SM -SHRA BKN015 FM251900 01008KT P6SM SCT040 BKN080 TEMPO 2520/2601 VRB15G25KT P6SM -SHRA VCTS SCT040CB BKN060 RMK FCST BASED ON AUTO OBS. NXT FCST BY 251900Z